createdAt,value
2022-12-19T00:00:28.786Z,100243.13
2022-12-19T00:01:36.594Z,100235.38
2022-12-19T00:02:39.692Z,100239.38
2022-12-19T00:03:50.873Z,100242.19
2022-12-19T00:04:53.793Z,100236.22
2022-12-19T00:05:56.875Z,100245.88
2022-12-19T00:07:00.542Z,100254.03
2022-12-19T00:08:05.216Z,100247.34
2022-12-19T00:09:20.315Z,100251.19
2022-12-19T00:10:23.340Z,100255.72
2022-12-19T00:11:28.025Z,100251.19
2022-12-19T00:12:31.412Z,100254.22
2022-12-19T00:13:41.096Z,100253.13
2022-12-19T00:14:44.380Z,100257.03
2022-12-19T00:15:47.402Z,100255.72
2022-12-19T00:16:50.572Z,100250.22
2022-12-19T00:17:53.693Z,100257.28
2022-12-19T00:18:59.819Z,100253.97
2022-12-19T00:20:02.731Z,100259.44
2022-12-19T00:21:06.542Z,100261.94
2022-12-19T00:22:11.293Z,100252.56
2022-12-19T00:23:14.571Z,100261.66
2022-12-19T00:24:20.693Z,100260.16
2022-12-19T00:25:24.502Z,100254.47
2022-12-19T00:26:33.386Z,100244.50
2022-12-19T00:27:36.953Z,100250.63
2022-12-19T00:28:41.076Z,100250.44
2022-12-19T00:29:44.052Z,100241.81
2022-12-19T00:30:47.323Z,100242.91
2022-12-19T00:31:50.313Z,100250.97
2022-12-19T00:32:53.321Z,100250.22
2022-12-19T00:33:57.096Z,100249.03
2022-12-19T00:35:00.115Z,100257.97
2022-12-19T00:36:08.659Z,100261.41
2022-12-19T00:37:12.392Z,100256.56
2022-12-19T00:38:15.331Z,100256.66
2022-12-19T00:39:18.514Z,100252.22
2022-12-19T00:40:21.627Z,100252.91
2022-12-19T00:41:30.618Z,100248.84
2022-12-19T00:42:33.606Z,100255.06
2022-12-19T00:43:37.215Z,100255.72
2022-12-19T00:44:40.115Z,100254.22
2022-12-19T00:45:43.119Z,100251.34
2022-12-19T00:46:51.054Z,100252.53
2022-12-19T00:47:56.461Z,100256.38
2022-12-19T00:49:00.297Z,100252.53
2022-12-19T00:50:04.379Z,100246.72
2022-12-19T00:51:13.626Z,100244.31
2022-12-19T00:52:16.558Z,100243.00
2022-12-19T00:53:19.456Z,100245.59
2022-12-19T00:54:22.401Z,100244.69
2022-12-19T00:55:25.957Z,100249.31
2022-12-19T00:56:31.694Z,100250.22
2022-12-19T00:57:38.013Z,100250.97
2022-12-19T00:58:46.420Z,100251.72
2022-12-19T00:59:49.746Z,100245.88
2022-12-19T01:00:53.011Z,100246.81
2022-12-19T01:01:56.392Z,100244.47
2022-12-19T01:03:00.499Z,100245.03
2022-12-19T01:05:30.821Z,100242.25
2022-12-19T01:06:34.516Z,100245.69
2022-12-19T01:07:37.846Z,100241.97
2022-12-19T01:08:41.299Z,100231.94
2022-12-19T01:09:44.048Z,100240.22
2022-12-19T01:10:49.736Z,100230.66
2022-12-19T01:12:11.381Z,100234.09
2022-12-19T01:13:15.599Z,100240.97
2022-12-19T01:14:22.817Z,100232.12
2022-12-19T01:15:26.378Z,100234.69
2022-12-19T01:16:29.150Z,100237.06
2022-12-19T01:17:43.529Z,100238.72
2022-12-19T01:18:47.288Z,100240.41
2022-12-19T01:19:50.075Z,100229.94
2022-12-19T01:20:52.768Z,100229.56
2022-12-19T01:21:55.734Z,100225.50
2022-12-19T01:23:00.221Z,100215.91
2022-12-19T01:24:05.047Z,100216.94
2022-12-19T01:25:08.430Z,100210.84
2022-12-19T01:26:11.122Z,100220.00
2022-12-19T01:27:13.778Z,100211.59
2022-12-19T01:28:16.706Z,100209.97
2022-12-19T01:29:21.398Z,100203.53
2022-12-19T01:30:24.193Z,100211.91
2022-12-19T01:31:27.397Z,100209.91
2022-12-19T01:32:30.755Z,100204.13
2022-12-19T01:33:33.436Z,100210.09
2022-12-19T01:34:36.362Z,100200.72
2022-12-19T01:35:43.262Z,100198.75
2022-12-19T01:36:46.030Z,100198.75
2022-12-19T01:37:49.926Z,100198.12
2022-12-19T01:38:58.619Z,100194.28
2022-12-19T01:40:01.529Z,100192.25
2022-12-19T01:41:04.972Z,100195.78
2022-12-19T01:42:19.601Z,100189.31
2022-12-19T01:43:31.135Z,100194.00
2022-12-19T01:44:34.587Z,100189.31
2022-12-19T01:45:43.858Z,100187.19
2022-12-19T01:46:51.902Z,100186.59
2022-12-19T01:48:03.169Z,100188.84
2022-12-19T01:49:13.989Z,100186.97
2022-12-19T01:50:27.558Z,100190.66
2022-12-19T01:51:41.256Z,100190.22
2022-12-19T01:52:44.348Z,100193.03
2022-12-19T01:53:51.457Z,100199.31
2022-12-19T01:54:54.214Z,100193.47
2022-12-19T01:55:57.097Z,100200.91
2022-12-19T01:57:01.620Z,100195.97
2022-12-19T01:58:05.340Z,100190.59
2022-12-19T01:59:16.875Z,100184.78
2022-12-19T02:00:19.745Z,100190.16
2022-12-19T02:01:24.841Z,100190.91
2022-12-19T02:02:37.802Z,100192.34
2022-12-19T02:03:41.818Z,100196.34
2022-12-19T02:04:46.382Z,100192.16
2022-12-19T02:05:50.462Z,100201.25
2022-12-19T02:06:55.947Z,100194.78
2022-12-19T02:08:00.574Z,100199.50
2022-12-19T02:09:03.338Z,100208.66
2022-12-19T02:10:06.675Z,100207.22
2022-12-19T02:11:09.471Z,100204.34
2022-12-19T02:12:14.967Z,100204.78
2022-12-19T02:13:18.473Z,100200.06
2022-12-19T02:14:21.817Z,100199.50
2022-12-19T02:15:29.988Z,100201.84
2022-12-19T02:17:20.067Z,100203.47
2022-12-19T02:18:38.834Z,100199.13
2022-12-19T02:19:59.526Z,100204.34
2022-12-19T02:21:33.042Z,100199.69
2022-12-19T02:23:13.152Z,100201.06
2022-12-19T02:24:39.862Z,100199.53
2022-12-19T02:25:56.722Z,100210.09
2022-12-19T02:27:22.481Z,100208.31
2022-12-19T02:28:53.092Z,100207.41
2022-12-19T02:30:07.430Z,100214.56
2022-12-19T02:31:21.909Z,100207.56
2022-12-19T02:32:46.303Z,100211.69
2022-12-19T02:34:04.530Z,100207.50
2022-12-19T02:35:17.739Z,100215.06
2022-12-19T02:36:29.828Z,100214.56
2022-12-19T02:37:50.278Z,100213.63
2022-12-19T02:39:06.020Z,100213.16
2022-12-19T02:40:20.327Z,100219.13
2022-12-19T02:41:43.564Z,100216.84
2022-12-19T02:42:52.244Z,100223.13
2022-12-19T02:43:58.977Z,100224.28
2022-12-19T02:45:05.568Z,100220.44
2022-12-19T02:46:10.242Z,100226.13
2022-12-19T02:47:14.959Z,100224.06
2022-12-19T02:48:19.422Z,100222.44
2022-12-19T02:49:26.875Z,100220.50
2022-12-19T02:50:42.202Z,100223.19
2022-12-19T02:51:45.093Z,100219.00
2022-12-19T02:52:49.752Z,100213.31
2022-12-19T02:53:52.604Z,100224.94
2022-12-19T02:55:01.768Z,100216.44
2022-12-19T02:56:18.499Z,100218.44
2022-12-19T02:57:30.432Z,100221.88
2022-12-19T02:59:05.089Z,100216.19
2022-12-19T03:00:36.999Z,100212.31
2022-12-19T03:01:51.801Z,100217.56
2022-12-19T03:03:21.431Z,100215.19
2022-12-19T03:04:29.983Z,100215.94
2022-12-19T03:05:32.860Z,100223.69
2022-12-19T03:06:48.814Z,100220.13
2022-12-19T03:08:25.260Z,100218.94
2022-12-19T03:09:34.093Z,100217.19
2022-12-19T03:10:54.811Z,100212.97
2022-12-19T03:12:05.739Z,100208.22
2022-12-19T03:13:13.414Z,100210.19
2022-12-19T03:14:19.896Z,100203.78
2022-12-19T03:15:24.066Z,100201.84
2022-12-19T03:16:27.253Z,100206.97
2022-12-19T03:17:35.859Z,100203.22
2022-12-19T03:18:39.691Z,100206.03
2022-12-19T03:19:42.790Z,100204.41
2022-12-19T03:21:02.857Z,100198.12
2022-12-19T03:22:05.696Z,100205.47
2022-12-19T03:23:08.744Z,100192.75
2022-12-19T03:24:13.464Z,100193.22
2022-12-19T03:25:16.452Z,100187.78
2022-12-19T03:26:21.913Z,100185.84
2022-12-19T03:27:30.952Z,100188.34
2022-12-19T03:28:42.352Z,100187.22
2022-12-19T03:29:55.336Z,100186.34
2022-12-19T03:31:00.023Z,100194.09
2022-12-19T03:32:05.814Z,100183.47
2022-12-19T03:33:10.697Z,100186.59
2022-12-19T03:34:25.743Z,100178.25
2022-12-19T03:35:32.514Z,100176.16
2022-12-19T03:36:43.142Z,100178.38
2022-12-19T03:37:49.259Z,100184.41
2022-12-19T03:38:52.902Z,100178.69
2022-12-19T03:40:02.205Z,100182.56
2022-12-19T03:41:10.778Z,100188.28
2022-12-19T03:42:35.096Z,100181.25
2022-12-19T03:43:39.102Z,100183.47
2022-12-19T03:44:43.657Z,100181.66
2022-12-19T03:46:05.340Z,100179.72
2022-12-19T03:47:18.082Z,100179.13
2022-12-19T03:48:27.472Z,100186.34
2022-12-19T03:49:30.411Z,100184.06
2022-12-19T03:50:51.268Z,100182.91
2022-12-19T03:52:06.910Z,100182.56
2022-12-19T03:53:57.236Z,100183.81
2022-12-19T03:55:22.033Z,100188.31
2022-12-19T03:56:49.429Z,100184.59
2022-12-19T03:57:56.277Z,100182.78
2022-12-19T03:59:10.320Z,100185.75
2022-12-19T04:00:16.379Z,100195.63
2022-12-19T04:01:19.621Z,100186.53
2022-12-19T04:02:24.478Z,100184.00
2022-12-19T04:03:30.401Z,100189.84
2022-12-19T04:04:39.574Z,100186.97
2022-12-19T04:05:44.038Z,100190.28
2022-12-19T04:06:49.062Z,100188.47
2022-12-19T04:07:57.541Z,100184.41
2022-12-19T04:09:01.420Z,100186.34
2022-12-19T04:10:11.714Z,100183.53
2022-12-19T04:11:20.373Z,100190.13
2022-12-19T04:12:31.072Z,100189.06
2022-12-19T04:13:39.161Z,100187.44
2022-12-19T04:14:42.457Z,100180.13
2022-12-19T04:16:10.160Z,100185.50
2022-12-19T04:17:51.763Z,100185.50
2022-12-19T04:19:03.603Z,100186.53
2022-12-19T04:20:09.461Z,100188.97
2022-12-19T04:21:19.223Z,100193.63
2022-12-19T04:22:35.066Z,100195.53
2022-12-19T04:23:45.225Z,100196.44
2022-12-19T04:24:50.679Z,100199.69
2022-12-19T04:25:59.539Z,100189.09
2022-12-19T04:27:06.053Z,100195.97
2022-12-19T04:28:20.571Z,100188.03
2022-12-19T04:29:25.158Z,100196.56
2022-12-19T04:30:27.891Z,100201.19
2022-12-19T04:31:31.562Z,100199.41
2022-12-19T04:32:36.939Z,100187.91
2022-12-19T04:33:39.899Z,100194.94
2022-12-19T04:34:43.196Z,100194.19
2022-12-19T04:35:46.182Z,100192.53
2022-12-19T04:36:50.709Z,100199.41
2022-12-19T04:37:53.385Z,100197.47
2022-12-19T04:38:56.269Z,100195.22
2022-12-19T04:39:59.848Z,100190.13
2022-12-19T04:41:03.196Z,100190.00
2022-12-19T04:42:06.097Z,100188.97
2022-12-19T04:43:09.778Z,100191.22
2022-12-19T04:44:12.717Z,100194.81
2022-12-19T04:45:15.545Z,100195.28
2022-12-19T04:46:18.804Z,100198.84
2022-12-19T04:47:21.904Z,100178.50
2022-12-19T04:48:25.209Z,100195.09
2022-12-19T04:49:28.112Z,100179.37
2022-12-19T04:50:33.192Z,100185.50
2022-12-19T04:51:35.864Z,100176.28
2022-12-19T04:52:38.830Z,100173.28
2022-12-19T04:53:41.545Z,100181.94
2022-12-19T04:54:44.585Z,100188.34
2022-12-19T04:55:47.344Z,100189.56
2022-12-19T04:56:50.186Z,100196.59
2022-12-19T04:57:53.389Z,100205.41
2022-12-19T04:58:59.731Z,100192.09
2022-12-19T05:00:04.186Z,100187.91
2022-12-19T05:01:09.079Z,100188.97
2022-12-19T05:02:11.849Z,100191.66
2022-12-19T05:03:14.676Z,100185.94
2022-12-19T05:04:17.586Z,100191.78
2022-12-19T05:05:20.377Z,100186.84
2022-12-19T05:06:23.585Z,100189.37
2022-12-19T05:07:26.430Z,100191.00
2022-12-19T05:08:29.626Z,100196.09
2022-12-19T05:09:32.467Z,100194.75
2022-12-19T05:10:37.135Z,100200.16
2022-12-19T05:11:39.861Z,100197.75
2022-12-19T05:12:42.699Z,100195.06
2022-12-19T05:13:45.465Z,100195.34
2022-12-19T05:14:48.215Z,100198.94
2022-12-19T05:16:17.062Z,100202.09
2022-12-19T05:17:20.038Z,100199.97
2022-12-19T05:18:23.025Z,100202.50
2022-12-19T05:19:25.786Z,100207.88
2022-12-19T05:20:28.551Z,100202.50
2022-12-19T05:21:31.857Z,100202.78
2022-12-19T05:22:34.544Z,100204.84
2022-12-19T05:23:37.351Z,100204.56
2022-12-19T05:24:40.026Z,100202.63
2022-12-19T05:25:42.689Z,100201.88
2022-12-19T05:26:45.427Z,100198.56
2022-12-19T05:27:48.350Z,100198.56
2022-12-19T05:28:51.087Z,100196.47
2022-12-19T05:29:53.780Z,100200.09
2022-12-19T05:31:05.515Z,100195.34
2022-12-19T05:32:08.275Z,100193.22
2022-12-19T05:33:11.403Z,100188.12
2022-12-19T05:34:14.142Z,100185.72
2022-12-19T05:35:16.873Z,100180.78
2022-12-19T05:36:20.335Z,100176.56
2022-12-19T05:37:23.089Z,100186.59
2022-12-19T05:38:26.656Z,100183.91
2022-12-19T05:39:30.048Z,100181.94
2022-12-19T05:40:33.612Z,100182.28
2022-12-19T05:41:36.572Z,100194.09
2022-12-19T05:42:39.482Z,100184.81
2022-12-19T05:43:42.864Z,100201.88
2022-12-19T05:44:45.988Z,100197.09
2022-12-19T05:45:48.696Z,100194.41
2022-12-19T05:46:51.491Z,100194.72
2022-12-19T05:47:58.654Z,100192.31
2022-12-19T05:49:04.292Z,100184.00
2022-12-19T05:50:07.503Z,100177.81
2022-12-19T05:51:10.500Z,100184.69
2022-12-19T05:52:13.245Z,100176.31
2022-12-19T05:53:19.692Z,100183.78
2022-12-19T05:54:26.389Z,100180.34
2022-12-19T05:55:29.325Z,100182.13
2022-12-19T05:56:32.072Z,100189.44
2022-12-19T05:57:35.544Z,100186.47
2022-12-19T05:58:40.512Z,100181.53
2022-12-19T05:59:43.342Z,100189.91
2022-12-19T06:00:46.114Z,100180.22
2022-12-19T06:01:48.972Z,100178.69
2022-12-19T06:02:51.802Z,100181.84
2022-12-19T06:03:55.433Z,100174.81
2022-12-19T06:04:58.056Z,100184.53
2022-12-19T06:06:12.667Z,100180.03
2022-12-19T06:07:20.752Z,100181.94
2022-12-19T06:08:24.376Z,100188.84
2022-12-19T06:09:27.075Z,100193.34
2022-12-19T06:10:29.705Z,100192.59
2022-12-19T06:11:32.422Z,100188.72
2022-12-19T06:12:35.241Z,100196.78
2022-12-19T06:13:38.744Z,100196.34
2022-12-19T06:14:41.454Z,100205.78
2022-12-19T06:15:44.221Z,100207.31
2022-12-19T06:16:47.237Z,100205.47
2022-12-19T06:17:54.206Z,100210.88
2022-12-19T06:18:56.961Z,100204.78
2022-12-19T06:20:00.095Z,100206.69
2022-12-19T06:21:06.374Z,100200.56
2022-12-19T06:22:09.130Z,100208.22
2022-12-19T06:23:11.952Z,100199.06
2022-12-19T06:24:14.668Z,100208.38
2022-12-19T06:25:17.320Z,100205.12
2022-12-19T06:26:21.809Z,100210.94
2022-12-19T06:27:24.485Z,100209.44
2022-12-19T06:28:28.977Z,100199.87
2022-12-19T06:29:31.881Z,100197.91
2022-12-19T06:30:34.616Z,100201.34
2022-12-19T06:31:37.382Z,100195.22
2022-12-19T06:32:40.054Z,100196.47
2022-12-19T06:33:42.902Z,100207.00
2022-12-19T06:35:03.819Z,100209.22
2022-12-19T06:36:13.761Z,100204.25
2022-12-19T06:37:16.686Z,100211.41
2022-12-19T06:38:19.332Z,100209.50
2022-12-19T06:39:22.696Z,100203.50
2022-12-19T06:40:43.821Z,100205.28
2022-12-19T06:42:04.916Z,100208.41
2022-12-19T06:43:07.531Z,100212.59
2022-12-19T06:44:12.754Z,100210.84
2022-12-19T06:45:15.523Z,100207.69
2022-12-19T06:46:18.238Z,100208.16
2022-12-19T06:47:22.380Z,100206.03
2022-12-19T06:48:27.763Z,100202.00
2022-12-19T06:49:30.536Z,100209.03
2022-12-19T06:50:33.313Z,100200.50
2022-12-19T06:51:36.090Z,100197.81
2022-12-19T06:52:38.728Z,100202.16
2022-12-19T06:53:41.890Z,100200.38
2022-12-19T06:54:44.732Z,100193.16
2022-12-19T06:55:49.223Z,100197.81
2022-12-19T06:56:52.055Z,100202.00
2022-12-19T06:57:55.536Z,100199.78
2022-12-19T06:58:58.228Z,100203.69
2022-12-19T07:00:01.012Z,100201.84
2022-12-19T07:01:03.816Z,100212.09
2022-12-19T07:02:24.772Z,100206.37
2022-12-19T07:03:32.653Z,100214.00
2022-12-19T07:04:44.030Z,100214.72
2022-12-19T07:05:47.330Z,100215.31
2022-12-19T07:06:50.180Z,100210.69
2022-12-19T07:07:53.221Z,100214.72
2022-12-19T07:08:55.971Z,100212.00
2022-12-19T07:09:59.112Z,100213.53
2022-12-19T07:11:02.457Z,100213.37
2022-12-19T07:12:05.389Z,100212.91
2022-12-19T07:13:08.283Z,100217.56
2022-12-19T07:14:10.998Z,100217.56
2022-12-19T07:15:14.219Z,100221.91
2022-12-19T07:16:17.059Z,100220.00
2022-12-19T07:17:22.245Z,100223.91
2022-12-19T07:18:24.923Z,100218.34
2022-12-19T07:19:28.837Z,100218.16
2022-12-19T07:20:33.840Z,100214.28
2022-12-19T07:21:37.127Z,100213.84
2022-12-19T07:22:41.170Z,100215.19
2022-12-19T07:23:44.455Z,100203.22
2022-12-19T07:24:47.390Z,100209.34
2022-12-19T07:25:50.422Z,100209.53
2022-12-19T07:26:53.276Z,100214.19
2022-12-19T07:27:56.234Z,100214.19
2022-12-19T07:29:00.166Z,100214.03
2022-12-19T07:30:06.041Z,100215.41
2022-12-19T07:31:08.960Z,100204.16
2022-12-19T07:32:11.689Z,100213.78
2022-12-19T07:33:18.354Z,100204.75
2022-12-19T07:34:24.088Z,100215.81
2022-12-19T07:35:26.924Z,100208.31
2022-12-19T07:36:29.855Z,100208.31
2022-12-19T07:37:32.688Z,100204.59
2022-12-19T07:38:36.919Z,100212.38
2022-12-19T07:39:39.606Z,100210.44
2022-12-19T07:40:42.596Z,100208.66
2022-12-19T07:41:45.378Z,100207.44
2022-12-19T07:42:47.972Z,100203.56
2022-12-19T07:43:50.844Z,100197.28
2022-12-19T07:44:53.564Z,100197.59
2022-12-19T07:45:57.098Z,100208.09
2022-12-19T07:46:59.795Z,100201.97
2022-12-19T07:48:03.789Z,100204.78
2022-12-19T07:49:06.491Z,100199.97
2022-12-19T07:50:09.398Z,100210.00
2022-12-19T07:51:12.101Z,100205.97
2022-12-19T07:52:14.897Z,100212.84
2022-12-19T07:53:17.577Z,100214.03
2022-12-19T07:54:20.411Z,100218.94
2022-12-19T07:55:23.229Z,100224.34
2022-12-19T07:56:26.098Z,100227.06
2022-12-19T07:57:29.075Z,100227.75
2022-12-19T07:58:31.798Z,100234.78
2022-12-19T07:59:38.955Z,100243.63
2022-12-19T08:00:42.549Z,100242.75
2022-12-19T08:01:45.515Z,100235.41
2022-12-19T08:02:48.926Z,100238.84
2022-12-19T08:03:52.556Z,100230.75
2022-12-19T08:04:55.508Z,100233.72
2022-12-19T08:06:05.557Z,100235.72
2022-12-19T08:07:08.822Z,100239.56
2022-12-19T08:08:11.583Z,100237.78
2022-12-19T08:09:14.486Z,100240.31
2022-12-19T08:10:17.305Z,100243.91
2022-12-19T08:11:29.596Z,100247.19
2022-12-19T08:12:33.917Z,100246.91
2022-12-19T08:13:40.868Z,100245.22
2022-12-19T08:14:47.453Z,100242.38
2022-12-19T08:15:50.339Z,100250.47
2022-12-19T08:17:19.889Z,100249.88
2022-12-19T08:18:16.016Z,100254.34
2022-12-19T08:19:20.569Z,100258.81
2022-12-19T08:20:26.409Z,100251.31
2022-12-19T08:21:29.396Z,100249.81
2022-12-19T08:22:32.309Z,100254.00
2022-12-19T08:23:35.009Z,100243.97
2022-12-19T08:24:37.793Z,100250.00
2022-12-19T08:25:40.668Z,100248.50
2022-12-19T08:26:47.539Z,100246.09
2022-12-19T08:27:50.967Z,100239.84
2022-12-19T08:28:56.391Z,100232.38
2022-12-19T08:29:59.111Z,100238.06
2022-12-19T08:31:11.387Z,100243.91
2022-12-19T08:32:20.867Z,100237.37
2022-12-19T08:33:24.657Z,100239.28
2022-12-19T08:34:27.461Z,100234.66
2022-12-19T08:35:30.230Z,100227.94
2022-12-19T08:36:32.976Z,100233.16
2022-12-19T08:37:35.703Z,100232.91
2022-12-19T08:38:42.433Z,100229.63
2022-12-19T08:39:45.202Z,100225.97
2022-12-19T08:40:54.818Z,100221.78
2022-12-19T08:41:57.418Z,100217.91
2022-12-19T08:43:00.118Z,100216.84
2022-12-19T08:44:02.951Z,100218.81
2022-12-19T08:45:06.252Z,100206.09
2022-12-19T08:46:09.800Z,100214.03
2022-12-19T08:47:12.634Z,100204.91
2022-12-19T08:48:15.302Z,100214.66
2022-12-19T08:49:19.155Z,100216.75
2022-12-19T08:50:21.838Z,100215.09
2022-12-19T08:51:24.713Z,100215.69
2022-12-19T08:52:27.377Z,100226.31
2022-12-19T08:53:32.225Z,100217.34
2022-12-19T08:54:34.934Z,100218.69
2022-12-19T08:55:37.726Z,100210.16
2022-12-19T08:56:46.361Z,100216.72
2022-12-19T08:57:49.668Z,100218.38
2022-12-19T08:58:52.575Z,100212.09
2022-12-19T08:59:55.326Z,100219.16
2022-12-19T09:01:06.012Z,100213.31
2022-12-19T09:02:10.679Z,100217.47
2022-12-19T09:03:13.651Z,100225.12
2022-12-19T09:05:43.717Z,100217.34
2022-12-19T09:06:00.038Z,100221.09
2022-12-19T09:07:03.808Z,100208.97
2022-12-19T09:08:06.984Z,100198.06
2022-12-19T09:09:09.760Z,100201.78
2022-12-19T09:10:12.416Z,100206.31
2022-12-19T09:11:17.739Z,100203.00
2022-12-19T09:12:20.406Z,100204.66
2022-12-19T09:13:23.061Z,100190.72
2022-12-19T09:14:25.672Z,100195.81
2022-12-19T09:15:28.363Z,100202.41
2022-12-19T09:16:31.164Z,100206.00
2022-12-19T09:17:34.075Z,100207.94
2022-12-19T09:18:39.861Z,100214.69
2022-12-19T09:19:47.901Z,100216.34
2022-12-19T09:20:54.386Z,100218.12
2022-12-19T09:21:57.259Z,100228.16
2022-12-19T09:23:00.121Z,100226.81
2022-12-19T09:24:07.923Z,100230.00
2022-12-19T09:25:11.240Z,100240.31
2022-12-19T09:26:14.339Z,100238.38
2022-12-19T09:27:17.470Z,100241.25
2022-12-19T09:28:28.428Z,100233.72
2022-12-19T09:29:35.283Z,100231.19
2022-12-19T09:30:38.482Z,100223.37
2022-12-19T09:31:41.272Z,100232.81
2022-12-19T09:32:44.014Z,100223.69
2022-12-19T09:33:48.042Z,100223.22
2022-12-19T09:34:50.634Z,100221.44
2022-12-19T09:35:56.581Z,100208.72
2022-12-19T09:36:59.609Z,100209.91
2022-12-19T09:38:03.963Z,100207.81
2022-12-19T09:39:06.920Z,100206.16
2022-12-19T09:40:16.772Z,100201.38
2022-12-19T09:41:37.574Z,100200.16
2022-12-19T09:42:55.606Z,100199.87
2022-12-19T09:44:06.919Z,100209.31
2022-12-19T09:45:29.440Z,100197.91
2022-12-19T09:46:52.330Z,100196.44
2022-12-19T09:48:01.695Z,100191.78
2022-12-19T09:49:17.081Z,100183.72
2022-12-19T09:50:52.890Z,100192.25
2022-12-19T09:52:08.410Z,100183.53
2022-12-19T09:53:36.574Z,100187.00
2022-12-19T09:54:42.786Z,100176.53
2022-12-19T09:55:48.429Z,100175.19
2022-12-19T09:56:58.226Z,100177.09
2022-12-19T09:58:19.674Z,100173.81
2022-12-19T09:59:26.129Z,100175.59
2022-12-19T10:00:39.513Z,100177.56
2022-12-19T10:02:10.012Z,100177.25
2022-12-19T10:03:22.736Z,100169.16
2022-12-19T10:04:28.342Z,100168.25
2022-12-19T10:07:07.809Z,100168.84
2022-12-19T10:07:21.975Z,100159.41
2022-12-19T10:10:10.682Z,100161.81
2022-12-19T10:12:34.589Z,100162.25
2022-12-19T10:12:44.610Z,100156.56
2022-12-19T10:13:53.309Z,100154.16
2022-12-19T10:15:20.435Z,100156.09
2022-12-19T10:16:23.057Z,100159.84
2022-12-19T10:17:49.272Z,100161.94
2022-12-19T10:18:57.080Z,100169.28
2022-12-19T10:20:15.190Z,100175.13
2022-12-19T10:21:42.936Z,100175.72
2022-12-19T10:22:46.351Z,100172.28
2022-12-19T10:24:10.367Z,100162.78
2022-12-19T10:25:23.973Z,100158.44
2022-12-19T10:26:47.329Z,100171.16
2022-12-19T10:28:00.558Z,100164.12
2022-12-19T10:29:43.486Z,100168.63
2022-12-19T10:31:11.360Z,100161.25
2022-12-19T10:32:27.992Z,100157.66
2022-12-19T10:33:59.812Z,100154.22
2022-12-19T10:35:11.639Z,100155.41
2022-12-19T10:36:15.967Z,100148.81
2022-12-19T10:37:37.409Z,100141.34
2022-12-19T10:38:59.587Z,100139.56
2022-12-19T10:40:14.318Z,100147.53
2022-12-19T10:41:28.086Z,100143.47
2022-12-19T10:42:38.372Z,100138.63
2022-12-19T10:44:08.412Z,100142.53
2022-12-19T10:45:18.236Z,100134.91
2022-12-19T10:46:42.844Z,100136.41
2022-12-19T10:47:58.623Z,100139.41
2022-12-19T10:49:06.635Z,100137.88
2022-12-19T10:50:17.484Z,100133.34
2022-12-19T10:51:26.594Z,100140.38
2022-12-19T10:52:52.526Z,100132.84
2022-12-19T10:53:57.665Z,100134.47
2022-12-19T10:55:00.499Z,100137.47
2022-12-19T10:56:20.883Z,100135.06
2022-12-19T10:57:29.597Z,100133.50
2022-12-19T10:58:37.973Z,100133.97
2022-12-19T10:59:54.207Z,100132.00
2022-12-19T11:01:17.865Z,100134.91
2022-12-19T11:02:35.184Z,100134.97
2022-12-19T11:03:40.312Z,100126.69
2022-12-19T11:04:43.115Z,100126.09
2022-12-19T11:05:57.645Z,100125.53
2022-12-19T11:07:05.265Z,100122.06
2022-12-19T11:08:07.976Z,100119.09
2022-12-19T11:09:19.264Z,100120.78
2022-12-19T11:12:38.534Z,100125.88
2022-12-19T11:16:37.167Z,100130.06
2022-12-19T11:18:41.906Z,100124.97
2022-12-19T11:19:23.218Z,100126.91
2022-12-19T11:24:05.307Z,100135.16
2022-12-19T11:24:13.648Z,100132.88
2022-12-19T11:29:27.405Z,100131.50
2022-12-19T11:29:38.522Z,100131.03
2022-12-19T11:29:41.547Z,100127.06
2022-12-19T11:29:44.965Z,100125.37
2022-12-19T11:30:09.734Z,100124.34
2022-12-19T11:30:48.371Z,100119.13
2022-12-19T11:31:50.906Z,100113.00
2022-12-19T11:32:36.480Z,100110.75
2022-12-19T11:33:27.365Z,100110.16
2022-12-19T11:34:37.330Z,100110.66
2022-12-19T11:35:49.649Z,100096.72
2022-12-19T11:37:19.210Z,100102.81
2022-12-19T11:38:45.630Z,100105.06
2022-12-19T11:39:58.788Z,100096.38
2022-12-19T11:41:12.128Z,100095.66
2022-12-19T11:42:26.091Z,100089.91
2022-12-19T11:43:55.218Z,100086.06
2022-12-19T11:45:17.939Z,100092.22
2022-12-19T11:46:29.081Z,100084.75
2022-12-19T11:47:40.894Z,100090.12
2022-12-19T11:48:56.559Z,100080.97
2022-12-19T11:50:13.644Z,100076.00
2022-12-19T11:51:19.603Z,100078.97
2022-12-19T11:54:27.619Z,100069.53
2022-12-19T11:55:44.404Z,100070.47
2022-12-19T11:56:47.177Z,100073.00
2022-12-19T11:57:50.047Z,100068.69
2022-12-19T11:59:00.247Z,100069.91
2022-12-19T12:00:05.582Z,100064.00
2022-12-19T12:01:18.075Z,100065.09
2022-12-19T12:02:29.471Z,100067.59
2022-12-19T12:03:55.925Z,100065.75
2022-12-19T12:05:10.005Z,100055.84
2022-12-19T12:06:17.477Z,100060.34
2022-12-19T12:08:17.498Z,100058.88
2022-12-19T12:11:19.004Z,100056.34
2022-12-19T12:14:45.493Z,100064.84
2022-12-19T12:16:53.524Z,100057.78
2022-12-19T12:23:39.983Z,100047.75
2022-12-19T12:24:32.482Z,100062.50
2022-12-19T12:27:10.908Z,100070.25
2022-12-19T12:31:02.008Z,100061.75
2022-12-19T12:31:13.019Z,100052.84
2022-12-19T12:31:39.254Z,100051.00
2022-12-19T12:31:39.751Z,100068.34
2022-12-19T12:31:41.323Z,100050.03
2022-12-19T12:31:49.208Z,100046.06
2022-12-19T12:31:57.030Z,100046.34
2022-12-19T12:32:00.572Z,100059.22
2022-12-19T12:35:51.512Z,100042.97
2022-12-19T12:39:04.730Z,100058.03
2022-12-19T12:40:44.769Z,100055.78
2022-12-19T12:42:27.637Z,100071.84
2022-12-19T12:43:52.026Z,100058.59
2022-12-19T12:44:59.618Z,100062.66
2022-12-19T12:46:05.599Z,100052.59
2022-12-19T12:47:22.486Z,100044.63
2022-12-19T12:48:50.792Z,100049.63
2022-12-19T12:50:04.348Z,100050.53
2022-12-19T12:51:07.749Z,100044.50
2022-12-19T12:52:16.609Z,100050.59
2022-12-19T12:53:25.424Z,100046.31
2022-12-19T12:54:34.895Z,100037.37
2022-12-19T12:55:42.085Z,100038.00
2022-12-19T12:56:47.078Z,100041.91
2022-12-19T12:57:50.009Z,100039.22
2022-12-19T12:58:54.330Z,100035.53
2022-12-19T13:00:16.617Z,100032.25
2022-12-19T13:01:35.982Z,100028.31
2022-12-19T13:02:39.066Z,100023.22
2022-12-19T13:03:43.372Z,100023.37
2022-12-19T13:04:58.914Z,100029.12
2022-12-19T13:06:21.267Z,100037.53
2022-12-19T13:07:50.448Z,100021.88
2022-12-19T13:09:22.821Z,100022.31
2022-12-19T13:10:26.839Z,100022.84
2022-12-19T13:11:47.969Z,100016.37
2022-12-19T13:13:00.844Z,100024.13
2022-12-19T13:14:04.684Z,100016.06
2022-12-19T13:15:30.090Z,100007.69
2022-12-19T13:16:44.944Z,100029.75
2022-12-19T13:17:47.759Z,100016.06
2022-12-19T13:19:25.776Z,100019.97
2022-12-19T13:20:30.850Z,100014.41
2022-12-19T13:22:04.949Z,100019.22
2022-12-19T13:23:41.971Z,100017.03